sensor_id;sensor_type;location;lat;lon;timestamp;temperature;humidity
5870;DHT22;2961;47.702;9.410;2023-02-01T00:02:01;2.50;99.90
5870;DHT22;2961;47.702;9.410;2023-02-01T00:04:28;2.50;99.90
5870;DHT22;2961;47.702;9.410;2023-02-01T00:06:54;2.40;99.90
5870;DHT22;2961;47.702;9.410;2023-02-01T00:09:23;2.50;99.90
5870;DHT22;2961;47.702;9.410;2023-02-01T00:11:50;2.50;99.90
5870;DHT22;2961;47.702;9.410;2023-02-01T00:14:16;2.50;99.90
5870;DHT22;2961;47.702;9.410;2023-02-01T00:16:43;2.60;99.90
5870;DHT22;2961;47.702;9.410;2023-02-01T00:19:12;2.60;99.90
5870;DHT22;2961;47.702;9.410;2023-02-01T00:21:39;2.80;99.90
5870;DHT22;2961;47.702;9.410;2023-02-01T00:24:07;2.80;99.90
5870;DHT22;2961;47.702;9.410;2023-02-01T00:26:37;2.90;99.90
5870;DHT22;2961;47.702;9.410;2023-02-01T00:29:06;2.90;99.90
5870;DHT22;2961;47.702;9.410;2023-02-01T00:31:35;2.90;99.90
5870;DHT22;2961;47.702;9.410;2023-02-01T00:34:02;2.90;99.90
5870;DHT22;2961;47.702;9.410;2023-02-01T00:36:29;2.90;99.90
5870;DHT22;2961;47.702;9.410;2023-02-01T00:38:56;3.00;99.90
5870;DHT22;2961;47.702;9.410;2023-02-01T00:41:23;3.00;99.90
5870;DHT22;2961;47.702;9.410;2023-02-01T00:43:52;3.00;99.90
5870;DHT22;2961;47.702;9.410;2023-02-01T00:46:19;3.00;99.90
5870;DHT22;2961;47.702;9.410;2023-02-01T00:48:47;3.00;99.90
5870;DHT22;2961;47.702;9.410;2023-02-01T00:51:15;3.00;99.90
5870;DHT22;2961;47.702;9.410;2023-02-01T00:53:42;3.00;99.90
5870;DHT22;2961;47.702;9.410;2023-02-01T00:56:09;3.00;99.90
5870;DHT22;2961;47.702;9.410;2023-02-01T00:58:36;3.00;99.90
5870;DHT22;2961;47.702;9.410;2023-02-01T01:01:06;3.00;99.90
5870;DHT22;2961;47.702;9.410;2023-02-01T01:03:35;3.00;99.90
5870;DHT22;2961;47.702;9.410;2023-02-01T01:06:05;3.00;99.90
5870;DHT22;2961;47.702;9.410;2023-02-01T01:08:32;3.00;99.90
5870;DHT22;2961;47.702;9.410;2023-02-01T01:10:59;3.00;99.90
5870;DHT22;2961;47.702;9.410;2023-02-01T01:13:30;3.10;99.90
5870;DHT22;2961;47.702;9.410;2023-02-01T01:15:59;3.10;99.90
5870;DHT22;2961;47.702;9.410;2023-02-01T01:18:29;3.20;99.90
5870;DHT22;2961;47.702;9.410;2023-02-01T01:20:56;3.10;99.90
5870;DHT22;2961;47.702;9.410;2023-02-01T01:23:23;3.00;99.90
5870;DHT22;2961;47.702;9.410;2023-02-01T01:25:50;3.10;99.90
5870;DHT22;2961;47.702;9.410;2023-02-01T01:28:17;3.10;99.90
5870;DHT22;2961;47.702;9.410;2023-02-01T01:30:44;3.10;99.90
5870;DHT22;2961;47.702;9.410;2023-02-01T01:33:11;3.10;99.90
5870;DHT22;2961;47.702;9.410;2023-02-01T01:35:39;3.10;99.90
5870;DHT22;2961;47.702;9.410;2023-02-01T01:38:06;3.10;99.90
5870;DHT22;2961;47.702;9.410;2023-02-01T01:40:32;3.10;99.90
5870;DHT22;2961;47.702;9.410;2023-02-01T01:42:59;3.20;99.90
5870;DHT22;2961;47.702;9.410;2023-02-01T01:45:28;3.20;99.90
5870;DHT22;2961;47.702;9.410;2023-02-01T01:47:58;3.10;99.90
5870;DHT22;2961;47.702;9.410;2023-02-01T01:50:28;3.10;99.90
5870;DHT22;2961;47.702;9.410;2023-02-01T01:52:59;3.10;99.90
5870;DHT22;2961;47.702;9.410;2023-02-01T01:55:30;3.20;99.90
5870;DHT22;2961;47.702;9.410;2023-02-01T01:58:01;3.20;99.90
5870;DHT22;2961;47.702;9.410;2023-02-01T02:00:29;3.20;99.90
5870;DHT22;2961;47.702;9.410;2023-02-01T02:03:00;3.20;99.90
5870;DHT22;2961;47.702;9.410;2023-02-01T02:05:30;3.20;99.90
5870;DHT22;2961;47.702;9.410;2023-02-01T02:07:59;3.20;99.90
5870;DHT22;2961;47.702;9.410;2023-02-01T02:10:27;3.20;99.90
5870;DHT22;2961;47.702;9.410;2023-02-01T02:13:08;3.30;99.90
5870;DHT22;2961;47.702;9.410;2023-02-01T02:15:40;3.30;99.90
5870;DHT22;2961;47.702;9.410;2023-02-01T02:18:12;3.30;99.90
5870;DHT22;2961;47.702;9.410;2023-02-01T02:21:09;3.20;99.90
5870;DHT22;2961;47.702;9.410;2023-02-01T02:26:54;3.10;99.90
5870;DHT22;2961;47.702;9.410;2023-02-01T02:35:46;3.20;99.90
5870;DHT22;2961;47.702;9.410;2023-02-01T02:38:20;3.10;99.90
5870;DHT22;2961;47.702;9.410;2023-02-01T02:40:54;3.10;99.90
5870;DHT22;2961;47.702;9.410;2023-02-01T02:43:26;3.20;99.90
5870;DHT22;2961;47.702;9.410;2023-02-01T02:46:19;3.20;99.90
5870;DHT22;2961;47.702;9.410;2023-02-01T02:49:10;3.10;99.90
5870;DHT22;2961;47.702;9.410;2023-02-01T02:51:42;3.20;99.90
5870;DHT22;2961;47.702;9.410;2023-02-01T02:54:31;3.20;99.90
5870;DHT22;2961;47.702;9.410;2023-02-01T02:57:17;3.30;99.90
5870;DHT22;2961;47.702;9.410;2023-02-01T03:00:05;3.20;99.90
5870;DHT22;2961;47.702;9.410;2023-02-01T03:02:50;3.30;99.90
5870;DHT22;2961;47.702;9.410;2023-02-01T03:05:36;3.40;99.90
5870;DHT22;2961;47.702;9.410;2023-02-01T03:08:11;3.40;99.90
5870;DHT22;2961;47.702;9.410;2023-02-01T03:10:45;3.30;99.90
5870;DHT22;2961;47.702;9.410;2023-02-01T03:13:18;3.30;99.90
5870;DHT22;2961;47.702;9.410;2023-02-01T03:15:51;3.30;99.90
5870;DHT22;2961;47.702;9.410;2023-02-01T03:18:23;3.30;99.90
5870;DHT22;2961;47.702;9.410;2023-02-01T03:20:53;3.30;99.90
5870;DHT22;2961;47.702;9.410;2023-02-01T03:23:26;3.30;99.90
5870;DHT22;2961;47.702;9.410;2023-02-01T03:25:56;3.30;99.90
5870;DHT22;2961;47.702;9.410;2023-02-01T03:28:25;3.30;99.90
5870;DHT22;2961;47.702;9.410;2023-02-01T03:30:54;3.30;99.90
5870;DHT22;2961;47.702;9.410;2023-02-01T03:33:23;3.30;99.90
5870;DHT22;2961;47.702;9.410;2023-02-01T03:35:57;3.20;99.90
5870;DHT22;2961;47.702;9.410;2023-02-01T03:38:30;3.30;99.90
5870;DHT22;2961;47.702;9.410;2023-02-01T03:41:03;3.20;99.90
5870;DHT22;2961;47.702;9.410;2023-02-01T03:43:50;3.30;99.90
5870;DHT22;2961;47.702;9.410;2023-02-01T03:46:24;3.30;99.90
5870;DHT22;2961;47.702;9.410;2023-02-01T03:48:53;3.20;99.90
5870;DHT22;2961;47.702;9.410;2023-02-01T03:51:22;3.20;99.90
5870;DHT22;2961;47.702;9.410;2023-02-01T03:53:52;3.30;99.90
5870;DHT22;2961;47.702;9.410;2023-02-01T03:56:21;3.20;99.90
5870;DHT22;2961;47.702;9.410;2023-02-01T03:58:51;3.20;99.90
5870;DHT22;2961;47.702;9.410;2023-02-01T04:01:26;3.10;99.90
5870;DHT22;2961;47.702;9.410;2023-02-01T04:03:53;3.00;99.90
5870;DHT22;2961;47.702;9.410;2023-02-01T04:06:20;3.00;99.90
5870;DHT22;2961;47.702;9.410;2023-02-01T04:08:47;3.00;99.90
5870;DHT22;2961;47.702;9.410;2023-02-01T04:11:15;3.00;99.90
5870;DHT22;2961;47.702;9.410;2023-02-01T04:13:42;2.90;99.90
5870;DHT22;2961;47.702;9.410;2023-02-01T04:16:09;2.90;99.90
5870;DHT22;2961;47.702;9.410;2023-02-01T04:18:36;2.90;99.90
5870;DHT22;2961;47.702;9.410;2023-02-01T04:21:03;2.80;99.90
5870;DHT22;2961;47.702;9.410;2023-02-01T04:23:30;2.80;99.90
5870;DHT22;2961;47.702;9.410;2023-02-01T04:25:59;2.80;99.90
5870;DHT22;2961;47.702;9.410;2023-02-01T04:28:28;2.80;99.90
5870;DHT22;2961;47.702;9.410;2023-02-01T04:30:55;2.80;99.90
5870;DHT22;2961;47.702;9.410;2023-02-01T04:33:22;2.80;99.90
5870;DHT22;2961;47.702;9.410;2023-02-01T04:35:49;2.80;99.90
5870;DHT22;2961;47.702;9.410;2023-02-01T04:38:16;2.70;99.90
5870;DHT22;2961;47.702;9.410;2023-02-01T04:40:43;2.80;99.90
5870;DHT22;2961;47.702;9.410;2023-02-01T04:43:09;2.70;99.90
5870;DHT22;2961;47.702;9.410;2023-02-01T04:45:38;2.80;99.90
5870;DHT22;2961;47.702;9.410;2023-02-01T04:48:05;2.80;99.90
5870;DHT22;2961;47.702;9.410;2023-02-01T04:50:32;2.80;99.90
5870;DHT22;2961;47.702;9.410;2023-02-01T04:52:58;2.80;99.90
5870;DHT22;2961;47.702;9.410;2023-02-01T04:55:25;2.80;99.90
5870;DHT22;2961;47.702;9.410;2023-02-01T04:57:52;2.80;99.90
5870;DHT22;2961;47.702;9.410;2023-02-01T05:00:19;2.90;99.90
5870;DHT22;2961;47.702;9.410;2023-02-01T05:02:48;2.80;99.90
5870;DHT22;2961;47.702;9.410;2023-02-01T05:05:14;2.80;99.90
5870;DHT22;2961;47.702;9.410;2023-02-01T05:07:41;2.90;99.90
5870;DHT22;2961;47.702;9.410;2023-02-01T05:10:09;3.00;99.90
5870;DHT22;2961;47.702;9.410;2023-02-01T05:12:36;3.00;99.90
5870;DHT22;2961;47.702;9.410;2023-02-01T05:15:20;3.00;99.90
5870;DHT22;2961;47.702;9.410;2023-02-01T05:17:48;3.00;99.90
5870;DHT22;2961;47.702;9.410;2023-02-01T05:20:15;3.00;99.90
5870;DHT22;2961;47.702;9.410;2023-02-01T05:22:42;2.90;99.90
5870;DHT22;2961;47.702;9.410;2023-02-01T05:25:09;3.00;99.90
5870;DHT22;2961;47.702;9.410;2023-02-01T05:27:36;2.90;99.90
5870;DHT22;2961;47.702;9.410;2023-02-01T05:30:03;2.90;99.90
5870;DHT22;2961;47.702;9.410;2023-02-01T05:32:30;2.90;99.90
5870;DHT22;2961;47.702;9.410;2023-02-01T05:35:12;2.90;99.90
5870;DHT22;2961;47.702;9.410;2023-02-01T05:37:39;2.90;99.90
5870;DHT22;2961;47.702;9.410;2023-02-01T05:40:07;2.90;99.90
5870;DHT22;2961;47.702;9.410;2023-02-01T05:42:33;2.80;99.90
5870;DHT22;2961;47.702;9.410;2023-02-01T05:45:00;2.80;99.90
5870;DHT22;2961;47.702;9.410;2023-02-01T05:47:27;2.80;99.90
5870;DHT22;2961;47.702;9.410;2023-02-01T05:49:54;2.70;99.90
5870;DHT22;2961;47.702;9.410;2023-02-01T05:52:22;2.70;99.90
5870;DHT22;2961;47.702;9.410;2023-02-01T05:54:51;2.70;99.90
5870;DHT22;2961;47.702;9.410;2023-02-01T05:57:18;2.70;99.90
5870;DHT22;2961;47.702;9.410;2023-02-01T05:59:45;2.70;99.90
5870;DHT22;2961;47.702;9.410;2023-02-01T06:02:14;2.70;99.90
5870;DHT22;2961;47.702;9.410;2023-02-01T06:04:41;2.70;99.90
5870;DHT22;2961;47.702;9.410;2023-02-01T06:07:08;2.80;99.90
5870;DHT22;2961;47.702;9.410;2023-02-01T06:09:37;2.80;99.90
5870;DHT22;2961;47.702;9.410;2023-02-01T06:12:04;2.90;99.90
5870;DHT22;2961;47.702;9.410;2023-02-01T06:14:31;2.90;99.90
5870;DHT22;2961;47.702;9.410;2023-02-01T06:16:58;2.90;99.90
5870;DHT22;2961;47.702;9.410;2023-02-01T06:19:25;2.90;99.90
5870;DHT22;2961;47.702;9.410;2023-02-01T06:21:52;2.90;99.90
5870;DHT22;2961;47.702;9.410;2023-02-01T06:24:18;2.80;99.90
5870;DHT22;2961;47.702;9.410;2023-02-01T06:26:47;2.80;99.90
5870;DHT22;2961;47.702;9.410;2023-02-01T06:29:13;2.80;99.90
5870;DHT22;2961;47.702;9.410;2023-02-01T06:31:40;2.80;99.90
5870;DHT22;2961;47.702;9.410;2023-02-01T06:34:08;2.70;99.90
5870;DHT22;2961;47.702;9.410;2023-02-01T06:36:35;2.80;99.90
5870;DHT22;2961;47.702;9.410;2023-02-01T06:39:01;2.70;99.90
5870;DHT22;2961;47.702;9.410;2023-02-01T06:41:29;2.70;99.90
5870;DHT22;2961;47.702;9.410;2023-02-01T06:43:57;2.70;99.90
5870;DHT22;2961;47.702;9.410;2023-02-01T06:46:24;2.70;99.90
5870;DHT22;2961;47.702;9.410;2023-02-01T06:48:50;2.70;99.90
5870;DHT22;2961;47.702;9.410;2023-02-01T06:51:22;2.70;99.90
5870;DHT22;2961;47.702;9.410;2023-02-01T06:53:49;2.70;99.90
5870;DHT22;2961;47.702;9.410;2023-02-01T06:56:15;2.80;99.90
5870;DHT22;2961;47.702;9.410;2023-02-01T06:58:42;2.80;99.90
5870;DHT22;2961;47.702;9.410;2023-02-01T07:01:11;2.90;99.90
5870;DHT22;2961;47.702;9.410;2023-02-01T07:03:38;2.90;99.90
5870;DHT22;2961;47.702;9.410;2023-02-01T07:06:06;2.90;99.90
5870;DHT22;2961;47.702;9.410;2023-02-01T07:08:35;2.90;99.90
5870;DHT22;2961;47.702;9.410;2023-02-01T07:11:03;2.90;99.90
5870;DHT22;2961;47.702;9.410;2023-02-01T07:13:30;2.90;99.90
5870;DHT22;2961;47.702;9.410;2023-02-01T07:15:58;2.90;99.90
5870;DHT22;2961;47.702;9.410;2023-02-01T07:18:28;2.90;99.90
5870;DHT22;2961;47.702;9.410;2023-02-01T07:20:56;2.80;99.90
5870;DHT22;2961;47.702;9.410;2023-02-01T07:23:23;2.80;99.90
5870;DHT22;2961;47.702;9.410;2023-02-01T07:25:53;2.80;99.90
5870;DHT22;2961;47.702;9.410;2023-02-01T07:28:20;2.80;99.90
5870;DHT22;2961;47.702;9.410;2023-02-01T07:30:47;2.90;99.90
5870;DHT22;2961;47.702;9.410;2023-02-01T07:33:17;2.90;99.90
5870;DHT22;2961;47.702;9.410;2023-02-01T07:35:45;2.90;99.90
5870;DHT22;2961;47.702;9.410;2023-02-01T07:38:12;2.90;99.90
5870;DHT22;2961;47.702;9.410;2023-02-01T07:40:39;2.90;99.90
5870;DHT22;2961;47.702;9.410;2023-02-01T07:43:06;2.90;99.90
5870;DHT22;2961;47.702;9.410;2023-02-01T07:45:33;2.90;99.90
5870;DHT22;2961;47.702;9.410;2023-02-01T07:48:00;2.90;99.90
5870;DHT22;2961;47.702;9.410;2023-02-01T07:50:27;3.00;99.90
5870;DHT22;2961;47.702;9.410;2023-02-01T07:52:56;3.00;99.90
5870;DHT22;2961;47.702;9.410;2023-02-01T07:55:24;3.00;99.90
5870;DHT22;2961;47.702;9.410;2023-02-01T07:57:51;2.90;99.90
5870;DHT22;2961;47.702;9.410;2023-02-01T08:00:19;2.90;99.90
5870;DHT22;2961;47.702;9.410;2023-02-01T08:03:04;3.00;99.90
5870;DHT22;2961;47.702;9.410;2023-02-01T08:05:31;3.10;99.90
5870;DHT22;2961;47.702;9.410;2023-02-01T08:07:59;3.20;99.90
5870;DHT22;2961;47.702;9.410;2023-02-01T08:10:26;3.20;99.90
5870;DHT22;2961;47.702;9.410;2023-02-01T08:12:58;3.20;99.90
5870;DHT22;2961;47.702;9.410;2023-02-01T08:15:25;3.20;99.90
5870;DHT22;2961;47.702;9.410;2023-02-01T08:17:52;3.20;99.90
5870;DHT22;2961;47.702;9.410;2023-02-01T08:20:20;3.20;99.90
5870;DHT22;2961;47.702;9.410;2023-02-01T08:22:48;3.20;99.90
5870;DHT22;2961;47.702;9.410;2023-02-01T08:25:16;3.30;99.90
5870;DHT22;2961;47.702;9.410;2023-02-01T08:27:44;3.30;99.90
5870;DHT22;2961;47.702;9.410;2023-02-01T08:30:12;3.30;99.90
5870;DHT22;2961;47.702;9.410;2023-02-01T08:32:39;3.30;99.90
5870;DHT22;2961;47.702;9.410;2023-02-01T08:35:06;3.40;99.90
5870;DHT22;2961;47.702;9.410;2023-02-01T08:37:33;3.50;99.90
5870;DHT22;2961;47.702;9.410;2023-02-01T08:40:00;3.40;99.90
5870;DHT22;2961;47.702;9.410;2023-02-01T08:42:28;3.50;99.90
5870;DHT22;2961;47.702;9.410;2023-02-01T08:45:12;3.50;99.90
5870;DHT22;2961;47.702;9.410;2023-02-01T08:47:39;3.60;99.90
5870;DHT22;2961;47.702;9.410;2023-02-01T08:50:07;3.60;99.90
5870;DHT22;2961;47.702;9.410;2023-02-01T08:52:34;3.50;99.90
5870;DHT22;2961;47.702;9.410;2023-02-01T08:55:01;3.60;99.90
5870;DHT22;2961;47.702;9.410;2023-02-01T08:57:29;3.50;99.90
5870;DHT22;2961;47.702;9.410;2023-02-01T08:59:56;3.60;99.90
5870;DHT22;2961;47.702;9.410;2023-02-01T09:02:23;3.60;99.90
5870;DHT22;2961;47.702;9.410;2023-02-01T09:04:50;3.70;99.90
5870;DHT22;2961;47.702;9.410;2023-02-01T09:07:17;3.70;99.90
5870;DHT22;2961;47.702;9.410;2023-02-01T09:09:44;3.80;99.90
5870;DHT22;2961;47.702;9.410;2023-02-01T09:12:11;3.80;99.90
5870;DHT22;2961;47.702;9.410;2023-02-01T09:14:39;3.80;99.90
5870;DHT22;2961;47.702;9.410;2023-02-01T09:17:06;3.80;99.90
5870;DHT22;2961;47.702;9.410;2023-02-01T09:19:33;3.70;99.90
5870;DHT22;2961;47.702;9.410;2023-02-01T09:22:00;3.80;99.90
5870;DHT22;2961;47.702;9.410;2023-02-01T09:24:27;3.80;99.90
5870;DHT22;2961;47.702;9.410;2023-02-01T09:26:54;3.90;99.90
5870;DHT22;2961;47.702;9.410;2023-02-01T09:29:20;3.90;99.90
5870;DHT22;2961;47.702;9.410;2023-02-01T09:31:48;4.00;99.90
5870;DHT22;2961;47.702;9.410;2023-02-01T09:34:15;4.00;99.90
5870;DHT22;2961;47.702;9.410;2023-02-01T09:36:42;4.10;99.90
5870;DHT22;2961;47.702;9.410;2023-02-01T09:39:09;4.10;99.90
5870;DHT22;2961;47.702;9.410;2023-02-01T09:41:42;4.10;99.90
5870;DHT22;2961;47.702;9.410;2023-02-01T09:44:21;4.10;99.90
5870;DHT22;2961;47.702;9.410;2023-02-01T09:46:55;4.10;99.90
5870;DHT22;2961;47.702;9.410;2023-02-01T09:49:27;4.10;99.90
5870;DHT22;2961;47.702;9.410;2023-02-01T09:51:55;4.10;99.90
5870;DHT22;2961;47.702;9.410;2023-02-01T09:54:25;4.10;99.90
5870;DHT22;2961;47.702;9.410;2023-02-01T09:56:55;4.10;99.90
5870;DHT22;2961;47.702;9.410;2023-02-01T09:59:29;4.10;99.90
5870;DHT22;2961;47.702;9.410;2023-02-01T10:02:01;4.20;99.90
5870;DHT22;2961;47.702;9.410;2023-02-01T10:04:28;4.30;99.90
5870;DHT22;2961;47.702;9.410;2023-02-01T10:07:02;4.30;99.90
5870;DHT22;2961;47.702;9.410;2023-02-01T10:09:44;4.40;99.90
5870;DHT22;2961;47.702;9.410;2023-02-01T10:12:39;4.50;99.90
5870;DHT22;2961;47.702;9.410;2023-02-01T10:15:26;4.50;99.90
5870;DHT22;2961;47.702;9.410;2023-02-01T10:18:11;4.50;99.90
5870;DHT22;2961;47.702;9.410;2023-02-01T10:20:52;4.60;99.90
5870;DHT22;2961;47.702;9.410;2023-02-01T10:23:31;4.70;99.90
5870;DHT22;2961;47.702;9.410;2023-02-01T10:26:05;4.80;99.90
5870;DHT22;2961;47.702;9.410;2023-02-01T10:28:37;4.80;99.90
5870;DHT22;2961;47.702;9.410;2023-02-01T10:31:05;4.90;99.90
5870;DHT22;2961;47.702;9.410;2023-02-01T10:33:39;4.90;99.90
5870;DHT22;2961;47.702;9.410;2023-02-01T10:36:13;5.10;99.90
5870;DHT22;2961;47.702;9.410;2023-02-01T10:38:43;5.20;99.90
5870;DHT22;2961;47.702;9.410;2023-02-01T10:41:13;5.20;99.90
5870;DHT22;2961;47.702;9.410;2023-02-01T10:43:42;5.10;99.90
5870;DHT22;2961;47.702;9.410;2023-02-01T10:46:09;5.10;99.90
5870;DHT22;2961;47.702;9.410;2023-02-01T10:48:38;5.00;99.90
5870;DHT22;2961;47.702;9.410;2023-02-01T10:51:10;4.90;99.90
5870;DHT22;2961;47.702;9.410;2023-02-01T10:53:44;4.90;99.90
5870;DHT22;2961;47.702;9.410;2023-02-01T10:56:13;4.90;99.90
5870;DHT22;2961;47.702;9.410;2023-02-01T10:58:44;5.00;99.90
5870;DHT22;2961;47.702;9.410;2023-02-01T11:01:17;5.20;99.90
5870;DHT22;2961;47.702;9.410;2023-02-01T11:03:52;5.40;99.90
5870;DHT22;2961;47.702;9.410;2023-02-01T11:06:26;5.40;99.90
5870;DHT22;2961;47.702;9.410;2023-02-01T11:08:55;5.50;99.90
5870;DHT22;2961;47.702;9.410;2023-02-01T11:11:23;5.60;99.90
5870;DHT22;2961;47.702;9.410;2023-02-01T11:13:56;5.70;99.90
5870;DHT22;2961;47.702;9.410;2023-02-01T11:16:33;5.80;99.90
5870;DHT22;2961;47.702;9.410;2023-02-01T11:19:17;6.00;99.90
5870;DHT22;2961;47.702;9.410;2023-02-01T11:21:45;6.20;99.90
5870;DHT22;2961;47.702;9.410;2023-02-01T11:24:22;6.40;99.90
5870;DHT22;2961;47.702;9.410;2023-02-01T11:26:50;6.30;99.90
5870;DHT22;2961;47.702;9.410;2023-02-01T11:29:20;6.30;99.90
5870;DHT22;2961;47.702;9.410;2023-02-01T11:31:54;6.40;99.90
5870;DHT22;2961;47.702;9.410;2023-02-01T11:34:25;6.30;99.90
5870;DHT22;2961;47.702;9.410;2023-02-01T11:36:55;6.30;99.90
5870;DHT22;2961;47.702;9.410;2023-02-01T11:39:26;6.40;99.90
5870;DHT22;2961;47.702;9.410;2023-02-01T11:41:59;6.40;99.90
5870;DHT22;2961;47.702;9.410;2023-02-01T11:44:31;6.40;99.90
5870;DHT22;2961;47.702;9.410;2023-02-01T11:47:19;6.50;99.90
5870;DHT22;2961;47.702;9.410;2023-02-01T11:49:48;6.60;99.90
5870;DHT22;2961;47.702;9.410;2023-02-01T11:52:21;6.60;99.90
5870;DHT22;2961;47.702;9.410;2023-02-01T11:55:07;6.50;99.90
5870;DHT22;2961;47.702;9.410;2023-02-01T11:57:48;6.40;99.90
5870;DHT22;2961;47.702;9.410;2023-02-01T12:00:34;6.40;99.90
5870;DHT22;2961;47.702;9.410;2023-02-01T12:03:21;6.50;99.90
5870;DHT22;2961;47.702;9.410;2023-02-01T12:05:58;6.60;99.90
5870;DHT22;2961;47.702;9.410;2023-02-01T12:08:54;6.50;99.90
5870;DHT22;2961;47.702;9.410;2023-02-01T12:11:38;6.30;99.90
5870;DHT22;2961;47.702;9.410;2023-02-01T12:14:33;6.10;99.90
5870;DHT22;2961;47.702;9.410;2023-02-01T12:20:27;6.00;99.90
5870;DHT22;2961;47.702;9.410;2023-02-01T12:23:05;5.90;99.90
5870;DHT22;2961;47.702;9.410;2023-02-01T12:25:44;5.80;99.90
5870;DHT22;2961;47.702;9.410;2023-02-01T12:28:26;5.80;99.90
5870;DHT22;2961;47.702;9.410;2023-02-01T12:31:11;6.00;99.90
5870;DHT22;2961;47.702;9.410;2023-02-01T12:33:51;6.10;99.90
5870;DHT22;2961;47.702;9.410;2023-02-01T12:36:28;6.20;99.90
5870;DHT22;2961;47.702;9.410;2023-02-01T12:39:04;6.40;99.90
5870;DHT22;2961;47.702;9.410;2023-02-01T12:41:50;6.50;99.90
5870;DHT22;2961;47.702;9.410;2023-02-01T12:44:32;6.60;99.90
5870;DHT22;2961;47.702;9.410;2023-02-01T12:47:07;6.60;99.90
5870;DHT22;2961;47.702;9.410;2023-02-01T12:49:44;6.60;99.90
5870;DHT22;2961;47.702;9.410;2023-02-01T12:52:15;6.50;99.90
5870;DHT22;2961;47.702;9.410;2023-02-01T12:54:48;6.60;99.90
5870;DHT22;2961;47.702;9.410;2023-02-01T12:57:20;6.60;99.90
5870;DHT22;2961;47.702;9.410;2023-02-01T12:59:52;6.60;99.90
5870;DHT22;2961;47.702;9.410;2023-02-01T13:02:37;6.50;99.90
5870;DHT22;2961;47.702;9.410;2023-02-01T13:05:14;6.40;99.90
5870;DHT22;2961;47.702;9.410;2023-02-01T13:07:45;6.40;99.90
5870;DHT22;2961;47.702;9.410;2023-02-01T13:10:18;6.30;99.90
5870;DHT22;2961;47.702;9.410;2023-02-01T13:12:51;6.30;99.90
5870;DHT22;2961;47.702;9.410;2023-02-01T13:15:23;6.20;99.90
5870;DHT22;2961;47.702;9.410;2023-02-01T13:17:54;6.20;99.90
5870;DHT22;2961;47.702;9.410;2023-02-01T13:20:25;6.10;99.90
5870;DHT22;2961;47.702;9.410;2023-02-01T13:22:58;6.10;99.90
5870;DHT22;2961;47.702;9.410;2023-02-01T13:25:31;6.00;99.90
5870;DHT22;2961;47.702;9.410;2023-02-01T13:28:03;6.00;99.90
5870;DHT22;2961;47.702;9.410;2023-02-01T13:31:07;5.90;99.90
5870;DHT22;2961;47.702;9.410;2023-02-01T13:33:56;5.90;99.90
5870;DHT22;2961;47.702;9.410;2023-02-01T13:36:43;5.90;99.90
5870;DHT22;2961;47.702;9.410;2023-02-01T13:42:21;5.60;99.90
5870;DHT22;2961;47.702;9.410;2023-02-01T13:44:51;5.50;99.90
5870;DHT22;2961;47.702;9.410;2023-02-01T13:47:25;5.50;99.90
5870;DHT22;2961;47.702;9.410;2023-02-01T13:49:53;5.50;99.90
5870;DHT22;2961;47.702;9.410;2023-02-01T13:52:28;5.40;99.90
5870;DHT22;2961;47.702;9.410;2023-02-01T13:55:16;5.40;99.90
5870;DHT22;2961;47.702;9.410;2023-02-01T13:57:58;5.40;99.90
5870;DHT22;2961;47.702;9.410;2023-02-01T14:00:27;5.50;99.90
5870;DHT22;2961;47.702;9.410;2023-02-01T14:03:15;5.50;99.90
5870;DHT22;2961;47.702;9.410;2023-02-01T14:06:14;5.50;99.90
5870;DHT22;2961;47.702;9.410;2023-02-01T14:08:44;5.50;99.90
5870;DHT22;2961;47.702;9.410;2023-02-01T14:17:40;5.50;99.90
5870;DHT22;2961;47.702;9.410;2023-02-01T14:23:28;5.50;99.90
5870;DHT22;2961;47.702;9.410;2023-02-01T14:26:08;5.40;99.90
5870;DHT22;2961;47.702;9.410;2023-02-01T14:28:39;5.40;99.90
5870;DHT22;2961;47.702;9.410;2023-02-01T14:31:16;5.40;99.90
5870;DHT22;2961;47.702;9.410;2023-02-01T14:33:45;5.40;99.90
5870;DHT22;2961;47.702;9.410;2023-02-01T14:36:14;5.30;99.90
5870;DHT22;2961;47.702;9.410;2023-02-01T14:38:48;5.30;99.90
5870;DHT22;2961;47.702;9.410;2023-02-01T14:41:30;5.30;99.90
5870;DHT22;2961;47.702;9.410;2023-02-01T14:44:26;5.30;99.90
5870;DHT22;2961;47.702;9.410;2023-02-01T14:47:04;5.30;99.90
5870;DHT22;2961;47.702;9.410;2023-02-01T14:49:36;5.30;99.90
5870;DHT22;2961;47.702;9.410;2023-02-01T14:52:09;5.30;99.90
5870;DHT22;2961;47.702;9.410;2023-02-01T14:54:39;5.30;99.90
5870;DHT22;2961;47.702;9.410;2023-02-01T14:57:14;5.30;99.90
5870;DHT22;2961;47.702;9.410;2023-02-01T14:59:42;5.30;99.90
5870;DHT22;2961;47.702;9.410;2023-02-01T15:02:18;5.30;99.90
5870;DHT22;2961;47.702;9.410;2023-02-01T15:04:54;5.30;99.90
5870;DHT22;2961;47.702;9.410;2023-02-01T15:07:21;5.30;99.90
5870;DHT22;2961;47.702;9.410;2023-02-01T15:09:50;5.30;99.90
5870;DHT22;2961;47.702;9.410;2023-02-01T15:12:22;5.30;99.90
5870;DHT22;2961;47.702;9.410;2023-02-01T15:15:10;5.30;99.90
5870;DHT22;2961;47.702;9.410;2023-02-01T15:17:38;5.40;99.90
5870;DHT22;2961;47.702;9.410;2023-02-01T15:20:14;5.40;99.90
5870;DHT22;2961;47.702;9.410;2023-02-01T15:22:42;5.30;99.90
5870;DHT22;2961;47.702;9.410;2023-02-01T15:25:19;5.30;99.90
5870;DHT22;2961;47.702;9.410;2023-02-01T15:27:46;5.40;99.90
5870;DHT22;2961;47.702;9.410;2023-02-01T15:30:17;5.30;99.90
5870;DHT22;2961;47.702;9.410;2023-02-01T15:32:44;5.40;99.90
5870;DHT22;2961;47.702;9.410;2023-02-01T15:35:40;5.30;99.90
5870;DHT22;2961;47.702;9.410;2023-02-01T15:38:31;5.30;99.90
5870;DHT22;2961;47.702;9.410;2023-02-01T15:41:01;5.30;99.90
5870;DHT22;2961;47.702;9.410;2023-02-01T15:43:29;5.30;99.90
5870;DHT22;2961;47.702;9.410;2023-02-01T15:45:58;5.30;99.90
5870;DHT22;2961;47.702;9.410;2023-02-01T15:48:27;5.30;99.90
5870;DHT22;2961;47.702;9.410;2023-02-01T15:50:58;5.30;99.90
5870;DHT22;2961;47.702;9.410;2023-02-01T15:53:26;5.30;99.90
5870;DHT22;2961;47.702;9.410;2023-02-01T15:55:59;5.30;99.90
5870;DHT22;2961;47.702;9.410;2023-02-01T15:58:27;5.20;99.90
5870;DHT22;2961;47.702;9.410;2023-02-01T16:00:59;5.20;99.90
5870;DHT22;2961;47.702;9.410;2023-02-01T16:03:35;5.30;99.90
5870;DHT22;2961;47.702;9.410;2023-02-01T16:06:05;5.20;99.90
5870;DHT22;2961;47.702;9.410;2023-02-01T16:08:33;5.20;99.90
5870;DHT22;2961;47.702;9.410;2023-02-01T16:11:16;5.20;99.90
5870;DHT22;2961;47.702;9.410;2023-02-01T16:13:47;5.20;99.90
5870;DHT22;2961;47.702;9.410;2023-02-01T16:16:13;5.20;99.90
5870;DHT22;2961;47.702;9.410;2023-02-01T16:18:40;5.20;99.90
5870;DHT22;2961;47.702;9.410;2023-02-01T16:21:09;5.20;99.90
5870;DHT22;2961;47.702;9.410;2023-02-01T16:23:36;5.20;99.90
5870;DHT22;2961;47.702;9.410;2023-02-01T16:26:03;5.20;99.90
5870;DHT22;2961;47.702;9.410;2023-02-01T16:28:31;5.10;99.90
5870;DHT22;2961;47.702;9.410;2023-02-01T16:30:58;5.10;99.90
5870;DHT22;2961;47.702;9.410;2023-02-01T16:33:26;5.10;99.90
5870;DHT22;2961;47.702;9.410;2023-02-01T16:35:56;5.10;99.90
5870;DHT22;2961;47.702;9.410;2023-02-01T16:38:26;5.10;99.90
5870;DHT22;2961;47.702;9.410;2023-02-01T16:40:53;5.00;99.90
5870;DHT22;2961;47.702;9.410;2023-02-01T16:43:23;5.00;99.90
5870;DHT22;2961;47.702;9.410;2023-02-01T16:45:52;4.90;99.90
5870;DHT22;2961;47.702;9.410;2023-02-01T16:48:22;4.90;99.90
5870;DHT22;2961;47.702;9.410;2023-02-01T16:50:52;4.90;99.90
5870;DHT22;2961;47.702;9.410;2023-02-01T16:53:20;4.80;99.90
5870;DHT22;2961;47.702;9.410;2023-02-01T16:55:49;4.90;99.90
5870;DHT22;2961;47.702;9.410;2023-02-01T16:58:17;4.80;99.90
5870;DHT22;2961;47.702;9.410;2023-02-01T17:00:45;4.80;99.90
5870;DHT22;2961;47.702;9.410;2023-02-01T17:03:12;4.70;99.90
5870;DHT22;2961;47.702;9.410;2023-02-01T17:05:43;4.70;99.90
5870;DHT22;2961;47.702;9.410;2023-02-01T17:08:13;4.70;99.90
5870;DHT22;2961;47.702;9.410;2023-02-01T17:10:41;4.70;99.90